createdAt,value
2022-10-01T00:00:00.644Z,100100.75
2022-10-01T00:02:38.170Z,100091.03
2022-10-01T00:05:13.486Z,100078.69
2022-10-01T00:07:46.972Z,100079.53
2022-10-01T00:10:19.653Z,100086.56
2022-10-01T00:12:52.136Z,100077.81
2022-10-01T00:15:28.807Z,100059.34
2022-10-01T00:18:02.022Z,100057.66
2022-10-01T00:20:35.210Z,100049.72
2022-10-01T00:23:07.748Z,100042.69
2022-10-01T00:25:41.373Z,100037.38
2022-10-01T00:28:13.894Z,100051.53
2022-10-01T00:30:47.996Z,100041.78
2022-10-01T00:33:20.468Z,100035.53
2022-10-01T00:35:56.948Z,100038.13
2022-10-01T00:38:30.938Z,100012.47
2022-10-01T00:41:05.028Z,100000.16
2022-10-01T00:43:46.360Z,100016.81
2022-10-01T00:46:29.531Z,100022.97
2022-10-01T00:49:21.381Z,100028.19
2022-10-01T00:52:05.825Z,100043.97
2022-10-01T00:54:49.316Z,100040.47
2022-10-01T00:57:26.446Z,100043.06
2022-10-01T01:00:05.979Z,100020.13
2022-10-01T01:02:39.625Z,100040.38
2022-10-01T01:05:13.453Z,100040.41
2022-10-01T01:07:50.230Z,100036.13
2022-10-01T01:10:54.124Z,100045.88
2022-10-01T01:13:53.889Z,100036.25
2022-10-01T01:16:57.856Z,99985.22
2022-10-01T01:20:06.097Z,99994.13
2022-10-01T01:22:53.385Z,100004.00
2022-10-01T01:25:42.287Z,99962.69
2022-10-01T01:28:25.685Z,99913.34
2022-10-01T01:31:07.442Z,99891.28
2022-10-01T01:33:46.099Z,99895.72
2022-10-01T01:36:28.607Z,99899.31
2022-10-01T01:39:08.249Z,99872.00
2022-10-01T01:41:51.544Z,99839.50
2022-10-01T01:44:31.557Z,99902.13
2022-10-01T01:47:10.509Z,99911.81
2022-10-01T01:49:43.767Z,99937.41
2022-10-01T01:52:17.367Z,99910.97
2022-10-01T01:54:51.560Z,99910.03
2022-10-01T01:57:24.271Z,99910.97
2022-10-01T01:59:56.760Z,99920.63
2022-10-01T02:02:35.882Z,99918.81
2022-10-01T02:05:15.936Z,99925.94
2022-10-01T02:08:16.399Z,99924.22
2022-10-01T02:11:13.466Z,99901.31
2022-10-01T02:14:28.099Z,99910.97
2022-10-01T02:17:13.144Z,99921.53
2022-10-01T02:20:11.985Z,99920.72
2022-10-01T02:22:54.843Z,99909.22
2022-10-01T02:25:37.518Z,99909.16
2022-10-01T02:28:18.743Z,99913.59
2022-10-01T02:30:58.346Z,99897.72
2022-10-01T02:33:36.473Z,99899.31
2022-10-01T02:36:13.215Z,99882.50
2022-10-01T02:38:50.661Z,99884.25
2022-10-01T02:41:33.806Z,99872.81
2022-10-01T02:44:18.433Z,99880.66
2022-10-01T02:47:23.793Z,99864.72
2022-10-01T02:49:56.293Z,99868.22
2022-10-01T02:52:58.664Z,99885.81
2022-10-01T02:55:37.804Z,99878.69
2022-10-01T02:58:11.519Z,99876.88
2022-10-01T03:00:44.077Z,99885.56
2022-10-01T03:03:16.612Z,99883.78
2022-10-01T03:05:49.124Z,99875.81
2022-10-01T03:08:21.608Z,99863.34
2022-10-01T03:10:54.074Z,99873.84
2022-10-01T03:13:27.043Z,99865.06
2022-10-01T03:15:59.773Z,99884.41
2022-10-01T03:18:32.242Z,99867.63
2022-10-01T03:21:04.771Z,99871.91
2022-10-01T03:23:37.335Z,99861.41
2022-10-01T03:26:09.819Z,99862.22
2022-10-01T03:28:42.301Z,99848.91
2022-10-01T03:31:14.880Z,99862.09
2022-10-01T03:33:47.369Z,99861.97
2022-10-01T03:36:19.840Z,99874.25
2022-10-01T03:38:52.450Z,99865.38
2022-10-01T03:41:24.974Z,99867.06
2022-10-01T03:44:00.509Z,99859.00
2022-10-01T03:46:33.245Z,99855.34
2022-10-01T03:49:05.985Z,99865.00
2022-10-01T03:51:38.618Z,99874.56
2022-10-01T03:54:11.179Z,99874.56
2022-10-01T03:56:43.656Z,99875.38
2022-10-01T03:59:16.165Z,99863.75
2022-10-01T04:01:48.852Z,99868.06
2022-10-01T04:04:21.521Z,99866.13
2022-10-01T04:06:53.997Z,99878.38
2022-10-01T04:09:26.522Z,99881.84
2022-10-01T04:11:59.753Z,99879.06
2022-10-01T04:14:32.277Z,99880.81
2022-10-01T04:17:04.757Z,99888.63
2022-10-01T04:19:37.218Z,99888.47
2022-10-01T04:22:09.681Z,99885.69
2022-10-01T04:24:42.182Z,99892.78
2022-10-01T04:27:15.320Z,99889.16
2022-10-01T04:29:47.793Z,99898.75
2022-10-01T04:32:21.497Z,99899.56
2022-10-01T04:34:54.042Z,99890.63
2022-10-01T04:37:29.378Z,99904.69
2022-10-01T04:40:02.040Z,99894.91
2022-10-01T04:42:34.489Z,99886.88
2022-10-01T04:45:08.826Z,99906.19
2022-10-01T04:47:52.790Z,99908.72
2022-10-01T04:50:27.318Z,99904.28
2022-10-01T04:53:00.113Z,99907.69
2022-10-01T04:55:32.620Z,99904.97
2022-10-01T04:58:05.117Z,99917.28
2022-10-01T05:00:37.736Z,99907.44
2022-10-01T05:03:10.785Z,99909.13
2022-10-01T05:05:43.282Z,99909.97
2022-10-01T05:08:15.876Z,99919.50
2022-10-01T05:10:48.411Z,99917.69
2022-10-01T05:13:20.874Z,99924.72
2022-10-01T05:15:53.689Z,99927.28
2022-10-01T05:18:26.427Z,99934.28
2022-10-01T05:20:59.169Z,99939.63
2022-10-01T05:23:32.779Z,99937.75
2022-10-01T05:26:05.742Z,99939.50
2022-10-01T05:28:44.649Z,99948.28
2022-10-01T05:31:18.663Z,99954.44
2022-10-01T05:33:51.232Z,99956.09
2022-10-01T05:36:23.714Z,99954.25
2022-10-01T05:38:56.232Z,99959.56
2022-10-01T05:41:28.697Z,99961.28
2022-10-01T05:44:02.926Z,99965.72
2022-10-01T05:46:35.426Z,99966.53
2022-10-01T05:49:08.287Z,99964.75
2022-10-01T05:51:40.741Z,99969.06
2022-10-01T05:54:13.798Z,99970.91
2022-10-01T05:56:46.265Z,99976.09
2022-10-01T05:59:18.781Z,99984.81
2022-10-01T06:01:51.419Z,99977.69
2022-10-01T06:04:24.205Z,99984.72
2022-10-01T06:06:56.725Z,99980.31
2022-10-01T06:09:29.204Z,99983.75
2022-10-01T06:12:02.587Z,99985.53
2022-10-01T06:14:35.316Z,99984.63
2022-10-01T06:17:07.820Z,99987.38
2022-10-01T06:19:40.305Z,99987.56
2022-10-01T06:22:12.779Z,99995.75
2022-10-01T06:24:45.284Z,100001.16
2022-10-01T06:27:18.520Z,100005.53
2022-10-01T06:29:51.007Z,99997.47
2022-10-01T06:32:23.512Z,100001.75
2022-10-01T06:34:55.984Z,99999.91
2022-10-01T06:37:28.698Z,100005.03
2022-10-01T06:40:01.309Z,100006.63
2022-10-01T06:42:33.804Z,100002.88
2022-10-01T06:45:06.873Z,100002.56
2022-10-01T06:47:39.370Z,100014.63
2022-10-01T06:50:11.854Z,100020.31
2022-10-01T06:52:50.126Z,100028.78
2022-10-01T06:55:28.971Z,100026.53
2022-10-01T06:58:17.588Z,100026.06
2022-10-01T07:00:50.861Z,100025.69
2022-10-01T07:03:23.394Z,100025.28
2022-10-01T07:06:03.284Z,100028.69
2022-10-01T07:08:35.842Z,100025.97
2022-10-01T07:11:08.318Z,100038.41
2022-10-01T07:13:40.761Z,100048.09
2022-10-01T07:16:13.290Z,100033.75
2022-10-01T07:18:45.887Z,100037.06
2022-10-01T07:21:18.407Z,100040.97
2022-10-01T07:23:51.070Z,100040.38
2022-10-01T07:26:23.577Z,100037.38
2022-10-01T07:28:56.097Z,100037.00
2022-10-01T07:31:28.752Z,100047.34
2022-10-01T07:34:01.293Z,100068.47
2022-10-01T07:36:34.031Z,100064.16
2022-10-01T07:39:06.503Z,100081.38
2022-10-01T07:41:38.991Z,100079.78
2022-10-01T07:44:14.357Z,100079.22
2022-10-01T07:46:47.190Z,100082.13
2022-10-01T07:49:20.375Z,100092.84
2022-10-01T07:51:54.824Z,100097.34
2022-10-01T07:54:27.432Z,100101.81
2022-10-01T07:56:59.945Z,100107.78
2022-10-01T07:59:33.146Z,100110.44
2022-10-01T08:02:06.116Z,100112.25
2022-10-01T08:04:57.557Z,100120.00
2022-10-01T08:07:32.844Z,100122.41
2022-10-01T08:10:05.877Z,100129.47
2022-10-01T08:12:38.594Z,100130.94
2022-10-01T08:15:15.171Z,100127.75
2022-10-01T08:17:47.654Z,100133.47
2022-10-01T08:20:21.372Z,100141.13
2022-10-01T08:22:53.963Z,100141.78
2022-10-01T08:25:26.412Z,100138.13
2022-10-01T08:28:00.232Z,100148.88
2022-10-01T08:30:33.182Z,100153.09
2022-10-01T08:33:06.642Z,100155.28
2022-10-01T08:35:40.866Z,100163.31
2022-10-01T08:38:14.446Z,100164.84
2022-10-01T08:40:51.000Z,100166.50
2022-10-01T08:43:38.709Z,100170.66
2022-10-01T08:46:18.244Z,100167.06
2022-10-01T08:49:08.141Z,100165.78
2022-10-01T08:52:06.352Z,100172.72
2022-10-01T08:54:59.138Z,100179.97
2022-10-01T08:57:41.998Z,100173.59
2022-10-01T09:00:17.569Z,100175.84
2022-10-01T09:02:52.893Z,100179.72
2022-10-01T09:05:55.640Z,100183.56
2022-10-01T09:08:56.977Z,100184.28
2022-10-01T09:11:59.050Z,100198.84
2022-10-01T09:15:01.727Z,100190.13
2022-10-01T09:17:56.320Z,100198.34
2022-10-01T09:20:58.297Z,100197.84
2022-10-01T09:23:42.847Z,100203.69
2022-10-01T09:26:15.391Z,100204.53
2022-10-01T09:28:53.831Z,100224.69
2022-10-01T09:31:42.736Z,100214.97
2022-10-01T09:34:43.271Z,100220.88
2022-10-01T09:37:49.477Z,100222.50
2022-10-01T09:40:38.475Z,100234.75
2022-10-01T09:43:12.968Z,100222.97
2022-10-01T09:45:47.191Z,100220.28
2022-10-01T09:48:38.281Z,100220.72
2022-10-01T09:51:18.285Z,100227.44
2022-10-01T09:54:13.009Z,100226.22
2022-10-01T09:56:54.905Z,100227.81
2022-10-01T09:59:37.855Z,100221.81
2022-10-01T10:02:22.838Z,100230.88
2022-10-01T10:05:13.926Z,100232.50
2022-10-01T10:08:00.001Z,100240.91
2022-10-01T10:10:36.825Z,100247.03
2022-10-01T10:13:10.084Z,100246.63
2022-10-01T10:15:59.861Z,100257.88
2022-10-01T10:18:35.855Z,100254.78
2022-10-01T10:21:20.615Z,100260.31
2022-10-01T10:24:01.153Z,100262.84
2022-10-01T10:26:41.029Z,100272.34
2022-10-01T10:29:34.178Z,100278.91
2022-10-01T10:32:28.370Z,100286.34
2022-10-01T10:35:09.967Z,100276.53
2022-10-01T10:37:49.931Z,100290.66
2022-10-01T10:40:29.555Z,100289.16
2022-10-01T10:43:02.421Z,100294.63
2022-10-01T10:45:39.758Z,100302.75
2022-10-01T10:48:18.738Z,100295.97
2022-10-01T10:51:01.676Z,100303.06
2022-10-01T10:53:46.055Z,100305.94
2022-10-01T10:56:23.064Z,100313.31
2022-10-01T10:59:08.287Z,100319.56
2022-10-01T11:01:43.134Z,100315.81
2022-10-01T11:04:50.485Z,100326.84
2022-10-01T11:07:26.768Z,100329.16
2022-10-01T11:10:27.794Z,100333.88
2022-10-01T11:13:53.305Z,100343.44
2022-10-01T11:16:40.932Z,100344.38
2022-10-01T11:19:41.534Z,100356.16
2022-10-01T11:22:44.943Z,100359.00
2022-10-01T11:25:43.709Z,100364.69
2022-10-01T11:28:50.832Z,100353.28
2022-10-01T11:32:05.136Z,100368.06
2022-10-01T11:35:14.638Z,100369.09
2022-10-01T11:37:59.977Z,100382.03
2022-10-01T11:40:40.865Z,100378.50
2022-10-01T11:43:18.509Z,100383.22
2022-10-01T11:46:42.113Z,100376.31
2022-10-01T11:49:26.721Z,100381.63
2022-10-01T11:52:18.220Z,100384.56
2022-10-01T11:55:29.493Z,100387.47
2022-10-01T11:58:32.898Z,100377.31
2022-10-01T12:01:28.351Z,100387.56
2022-10-01T12:04:07.247Z,100391.31
2022-10-01T12:06:56.060Z,100400.13
2022-10-01T12:10:25.679Z,100411.72
2022-10-01T12:13:07.373Z,100424.06
2022-10-01T12:15:51.880Z,100418.41
2022-10-01T12:18:36.218Z,100413.06
2022-10-01T12:21:23.549Z,100424.75
2022-10-01T12:24:14.255Z,100423.28
2022-10-01T12:27:02.200Z,100432.81
2022-10-01T12:29:43.590Z,100436.34
2022-10-01T12:32:47.189Z,100416.25
2022-10-01T12:35:57.844Z,100439.84
2022-10-01T12:39:03.380Z,100440.19
2022-10-01T12:42:14.981Z,100449.06
2022-10-01T12:45:20.347Z,100456.19
2022-10-01T12:48:25.698Z,100457.81
2022-10-01T12:51:35.981Z,100470.47
2022-10-01T12:54:48.521Z,100473.94
2022-10-01T12:57:33.061Z,100478.88
2022-10-01T13:00:27.295Z,100476.59
2022-10-01T13:03:37.361Z,100485.06
2022-10-01T13:06:32.152Z,100468.94
2022-10-01T13:09:29.906Z,100486.84
2022-10-01T13:12:32.930Z,100521.47
2022-10-01T13:15:22.423Z,100498.19
2022-10-01T13:18:15.620Z,100496.81
2022-10-01T13:21:13.251Z,100509.97
2022-10-01T13:24:12.197Z,100509.53
2022-10-01T13:27:28.294Z,100518.41
2022-10-01T13:30:21.562Z,100521.31
2022-10-01T13:33:00.830Z,100520.59
2022-10-01T13:35:39.577Z,100535.25
2022-10-01T13:38:29.229Z,100536.63
2022-10-01T13:41:06.231Z,100533.03
2022-10-01T13:43:39.454Z,100536.88
2022-10-01T13:46:12.896Z,100548.81
2022-10-01T13:48:49.178Z,100543.88
2022-10-01T13:51:21.830Z,100539.47
2022-10-01T13:54:02.149Z,100556.94
2022-10-01T13:56:38.067Z,100551.81
2022-10-01T13:59:39.825Z,100557.19
2022-10-01T14:02:36.978Z,100566.44
2022-10-01T14:05:28.903Z,100560.13
2022-10-01T14:08:25.287Z,100569.59
2022-10-01T14:11:29.061Z,100573.50
2022-10-01T14:14:46.409Z,100571.31
2022-10-01T14:17:24.739Z,100581.28
2022-10-01T14:20:00.555Z,100572.72
2022-10-01T14:22:50.968Z,100588.44
2022-10-01T14:25:57.573Z,100595.84
2022-10-01T14:28:38.207Z,100600.97
2022-10-01T14:31:35.643Z,100600.25
2022-10-01T14:34:39.876Z,100606.03
2022-10-01T14:37:18.325Z,100609.88
2022-10-01T14:40:20.953Z,100613.03
2022-10-01T14:43:15.122Z,100610.16
2022-10-01T14:46:06.721Z,100617.06
2022-10-01T14:48:40.349Z,100619.38
2022-10-01T14:51:30.673Z,100633.63
2022-10-01T14:54:03.470Z,100630.56
2022-10-01T14:56:37.901Z,100632.91
2022-10-01T14:59:39.585Z,100641.03
2022-10-01T15:02:25.171Z,100637.00
2022-10-01T15:04:58.166Z,100647.41
2022-10-01T15:07:36.781Z,100642.28
2022-10-01T15:10:09.560Z,100648.47
2022-10-01T15:12:43.162Z,100650.69
2022-10-01T15:15:26.392Z,100650.16
2022-10-01T15:17:59.097Z,100657.59
2022-10-01T15:20:32.042Z,100657.81
2022-10-01T15:23:06.083Z,100674.81
2022-10-01T15:25:38.611Z,100672.00
2022-10-01T15:28:25.073Z,100678.13
2022-10-01T15:31:00.971Z,100696.16
2022-10-01T15:33:37.927Z,100687.44
2022-10-01T15:36:18.412Z,100690.03
2022-10-01T15:38:51.563Z,100697.88
2022-10-01T15:41:32.281Z,100699.50
2022-10-01T15:44:06.436Z,100708.31
2022-10-01T15:46:39.341Z,100712.78
2022-10-01T15:49:19.223Z,100714.31
2022-10-01T15:52:20.077Z,100718.84
2022-10-01T15:54:59.995Z,100724.19
2022-10-01T15:57:33.558Z,100723.50
2022-10-01T16:00:07.091Z,100723.59
2022-10-01T16:02:39.823Z,100725.34
2022-10-01T16:05:20.468Z,100725.56
2022-10-01T16:07:58.434Z,100738.31
2022-10-01T16:10:37.803Z,100740.19
2022-10-01T16:13:38.683Z,100742.84
2022-10-01T16:16:19.352Z,100743.78
2022-10-01T16:19:19.082Z,100745.59
2022-10-01T16:22:19.235Z,100747.94
2022-10-01T16:25:09.269Z,100756.59
2022-10-01T16:28:04.158Z,100759.69
2022-10-01T16:30:36.839Z,100772.34
2022-10-01T16:33:10.294Z,100772.59
2022-10-01T16:35:45.488Z,100778.47
2022-10-01T16:38:17.985Z,100771.72
2022-10-01T16:40:53.489Z,100779.81
2022-10-01T16:43:25.996Z,100782.72
2022-10-01T16:45:59.251Z,100779.44
2022-10-01T16:48:31.785Z,100785.00
2022-10-01T16:51:04.384Z,100801.16
2022-10-01T16:53:38.121Z,100794.38
2022-10-01T16:56:10.877Z,100802.41
2022-10-01T16:58:44.270Z,100806.22
2022-10-01T17:01:16.896Z,100803.25
2022-10-01T17:03:49.451Z,100808.25
2022-10-01T17:06:21.977Z,100809.50
2022-10-01T17:08:54.601Z,100816.16
2022-10-01T17:11:29.931Z,100818.44
2022-10-01T17:14:07.003Z,100826.97
2022-10-01T17:16:40.155Z,100836.97
2022-10-01T17:19:14.338Z,100831.19
2022-10-01T17:21:47.042Z,100841.22
2022-10-01T17:24:19.716Z,100855.72
2022-10-01T17:26:52.492Z,100847.06
2022-10-01T17:29:24.984Z,100853.47
2022-10-01T17:31:57.839Z,100866.03
2022-10-01T17:34:30.619Z,100858.31
2022-10-01T17:37:03.380Z,100869.13
2022-10-01T17:39:36.192Z,100885.34
2022-10-01T17:42:11.773Z,100885.50
2022-10-01T17:44:45.233Z,100885.78
2022-10-01T17:47:18.209Z,100878.91
2022-10-01T17:49:50.993Z,100888.03
2022-10-01T17:52:23.635Z,100892.72
2022-10-01T17:54:56.299Z,100892.91
2022-10-01T17:57:28.818Z,100894.88
2022-10-01T18:00:01.924Z,100905.66
2022-10-01T18:02:42.101Z,100910.22
2022-10-01T18:05:15.403Z,100912.16
2022-10-01T18:07:47.914Z,100923.88
2022-10-01T18:10:20.414Z,100924.81
2022-10-01T18:12:53.026Z,100913.50
2022-10-01T18:15:25.599Z,100918.88
2022-10-01T18:19:03.600Z,100927.09
2022-10-01T18:20:53.353Z,100933.38
2022-10-01T18:23:31.826Z,100939.72
2022-10-01T18:26:05.294Z,100935.44
2022-10-01T18:28:38.118Z,100946.13
2022-10-01T18:31:13.616Z,100951.44
2022-10-01T18:33:57.754Z,100953.25
2022-10-01T18:36:54.899Z,100957.72
2022-10-01T18:39:41.004Z,100962.13
2022-10-01T18:42:30.010Z,100962.13
2022-10-01T18:45:14.688Z,100971.06
2022-10-01T18:48:11.715Z,100959.59
2022-10-01T18:51:19.281Z,100977.47
2022-10-01T18:54:38.934Z,100980.19
2022-10-01T18:57:42.037Z,100990.88
2022-10-01T19:00:23.183Z,100985.75
2022-10-01T19:03:35.885Z,100987.63
2022-10-01T19:06:39.680Z,100993.91
2022-10-01T19:09:44.699Z,100988.78
2022-10-01T19:12:26.919Z,100995.97
2022-10-01T19:15:16.036Z,100998.72
2022-10-01T19:18:38.722Z,100998.78
2022-10-01T19:21:29.234Z,101005.97
2022-10-01T19:24:51.966Z,101008.78
2022-10-01T19:27:58.345Z,101004.50
2022-10-01T19:31:15.920Z,101018.75
2022-10-01T19:34:25.193Z,101018.81
2022-10-01T19:37:10.714Z,101009.22
2022-10-01T19:39:51.475Z,101019.03
2022-10-01T19:42:33.614Z,101018.25
2022-10-01T19:45:38.197Z,101025.38
2022-10-01T19:48:23.853Z,101025.50
2022-10-01T19:51:07.953Z,101031.72
2022-10-01T19:53:50.853Z,101038.72
2022-10-01T19:56:30.192Z,101043.06
2022-10-01T19:59:16.115Z,101051.00
2022-10-01T20:02:01.466Z,101057.03
2022-10-01T20:04:58.556Z,101057.94
2022-10-01T20:08:07.813Z,101051.63
2022-10-01T20:11:01.743Z,101056.75
2022-10-01T20:14:07.674Z,101061.06
2022-10-01T20:16:50.353Z,101050.22
2022-10-01T20:19:38.985Z,101056.38
2022-10-01T20:22:54.453Z,101061.56
2022-10-01T20:25:55.995Z,101064.00
2022-10-01T20:29:05.340Z,101063.94
2022-10-01T20:32:09.492Z,101071.94
2022-10-01T20:34:57.131Z,101077.31
2022-10-01T20:37:45.210Z,101079.97
2022-10-01T20:40:26.817Z,101078.22
2022-10-01T20:43:13.926Z,101095.03
2022-10-01T20:45:51.586Z,101090.50
2022-10-01T20:48:37.205Z,101090.41
2022-10-01T20:51:32.615Z,101098.19
2022-10-01T20:54:16.144Z,101100.75
2022-10-01T20:57:12.735Z,101100.72
2022-10-01T20:59:52.483Z,101097.91
2022-10-01T21:02:42.674Z,101102.22
2022-10-01T21:05:27.084Z,101102.22
2022-10-01T21:08:06.713Z,101106.53
2022-10-01T21:10:56.224Z,101104.88
2022-10-01T21:13:31.661Z,101109.41
2022-10-01T21:17:00.649Z,101113.84
2022-10-01T21:20:09.018Z,101120.09
2022-10-01T21:23:03.154Z,101138.75
2022-10-01T21:26:09.683Z,101121.91
2022-10-01T21:29:22.050Z,101126.34
2022-10-01T21:32:08.162Z,101133.44
2022-10-01T21:34:40.567Z,101137.84
2022-10-01T21:37:23.035Z,101129.00
2022-10-01T21:40:32.914Z,101134.22
2022-10-01T21:43:40.209Z,101134.19
2022-10-01T21:46:40.062Z,101141.19
2022-10-01T21:49:43.463Z,101143.91
2022-10-01T21:52:31.092Z,101150.09
2022-10-01T21:55:25.774Z,101145.72
2022-10-01T21:58:34.427Z,101148.44
2022-10-01T22:01:48.867Z,101149.25
2022-10-01T22:04:39.310Z,101151.91
2022-10-01T22:07:36.853Z,101161.72
2022-10-01T22:10:20.204Z,101159.13
2022-10-01T22:13:00.349Z,101169.78
2022-10-01T22:15:40.475Z,101165.38
2022-10-01T22:18:33.920Z,101171.66
2022-10-01T22:21:17.385Z,101172.53
2022-10-01T22:24:01.889Z,101177.00
2022-10-01T22:26:42.041Z,101172.59
2022-10-01T22:29:42.310Z,101180.66
2022-10-01T22:32:20.860Z,101171.81
2022-10-01T22:35:03.101Z,101183.31
2022-10-01T22:37:57.086Z,101177.28
2022-10-01T22:40:39.582Z,101181.66
2022-10-01T22:43:14.321Z,101181.72
2022-10-01T22:46:27.633Z,101186.16
2022-10-01T22:49:11.846Z,101187.13
2022-10-01T22:52:48.243Z,101189.81
2022-10-01T22:55:44.977Z,101184.47
2022-10-01T22:59:03.211Z,101193.38
2022-10-01T23:01:48.971Z,101193.44
2022-10-01T23:04:55.842Z,101194.31
2022-10-01T23:07:46.673Z,101196.88
2022-10-01T23:10:49.793Z,101196.94
2022-10-01T23:14:01.880Z,101196.88
2022-10-01T23:17:06.300Z,101191.56
2022-10-01T23:19:57.769Z,101196.78
2022-10-01T23:22:42.419Z,101190.63
2022-10-01T23:25:56.549Z,101187.06
2022-10-01T23:29:01.136Z,101187.13
2022-10-01T23:31:46.030Z,101187.13
2022-10-01T23:34:59.110Z,101188.88
2022-10-01T23:38:13.888Z,101198.53
2022-10-01T23:40:51.667Z,101205.63
2022-10-01T23:43:35.779Z,101205.63
2022-10-01T23:46:17.578Z,101209.97
2022-10-01T23:48:59.737Z,101209.94
2022-10-01T23:51:46.611Z,101213.38
2022-10-01T23:54:56.550Z,101208.88
2022-10-01T23:57:38.355Z,101214.13
